ADDS METAR Data INFO
IDs: Format: Raw Decoded Include TAF

Data at: 1149 UTC 21 Jun 2018

KCIR 211135Z AUTO 20005KT 7SM BKN007 OVC014 21/21 A2982 RMK AO2 T02100206
KCIR 211115Z AUTO 21005KT 10SM SCT007 OVC016 21/21 A2982 RMK AO2 T02100206
KCIR 211100Z AUTO 21006KT 10SM SCT006 OVC016 21/21 A2982 RMK AO2 T02100205
KCIR 211035Z AUTO 20006KT 10SM BKN006 OVC016 21/21 A2982 RMK AO2 T02090205
KCIR 211015Z AUTO 20006KT 10SM BKN006 BKN012 OVC018 21/21 A2982 RMK AO2 T02100205
KCIR 210955Z AUTO 20008KT 7SM BKN006 OVC011 21/21 A2982 RMK AO2 T02100206
KCIR 210935Z AUTO 21008KT 10SM OVC006 21/21 A2982 RMK AO2 T02100207
KCIR 210915Z AUTO 20006KT 10SM OVC006 21/21 A2982 RMK AO2 T02120207
KCIR 210855Z AUTO 21008G14KT 10SM OVC006 21/21 A2982 RMK AO2 P0002 60006 T02120207
KCIR 210835Z AUTO 19007KT 7SM -RA OVC006 22/21 A2982 RMK AO2 P0001 T02150211
KCIR 210815Z AUTO 22006KT 10SM RA OVC006 22/21 A2982 RMK AO2 P0001 T02150211
KCIR 210755Z AUTO 22004KT 7SM RA OVC006 21/21 A2983 RMK AO2 P0001 T02130210
KCIR 210735Z AUTO 21005KT 7SM DZ OVC008 21/21 A2984 RMK AO2 P0001 T02110208
KCIR 210715Z AUTO 21004KT 7SM DZ OVC008 21/21 A2984 RMK AO2 T02100206
KCIR 210655Z AUTO 22004KT 7SM DZ OVC008 21/21 A2985 RMK AO2 P0003 T02080205
KCIR 210635Z AUTO 22004KT 7SM -RA SCT010 BKN019 OVC037 21/20 A2986 RMK AO2 P0003 T02070202
KCIR 210615Z AUTO 22003KT 7SM -RA SCT027 BKN038 OVC050 21/20 A2986 RMK AO2 P0001 T02070201
KCIR 210555Z AUTO 22006KT 7SM RA SCT041 OVC055 21/20 A2987 RMK AO2 P0004 60004 T02060198 10286 20206 403140206
KCIR 210535Z AUTO 22008G15KT 5SM RA SCT039 SCT050 OVC065 21/20 A2987 RMK AO2 P0002 T02090196
KCIR 210515Z AUTO 21012KT 10SM RA SCT015 SCT038 OVC065 23/20 A2987 RMK AO2 T02250200
KCIR 210455Z AUTO 19008G14KT 10SM DZ BKN017 BKN027 OVC110 24/21 A2987 RMK AO2 T02360211
KCIR 210435Z AUTO 19007G14KT 10SM OVC017 24/21 A2987 RMK AO2 T02400212
KCIR 210415Z AUTO 21009G14KT 10SM OVC019 24/21 A2987 RMK AO2 T02410210
KCIR 210355Z AUTO 20006KT 10SM BKN021 BKN110 24/21 A2987 RMK AO2 T02440208
KCIR 210335Z AUTO 21004KT 10SM SCT070 OVC110 25/20 A2988 RMK AO2 LTG DSNT SE T02460204
KCIR 210315Z AUTO 22005KT 10SM SCT050 BKN070 OVC120 25/20 A2988 RMK AO2 T02470203
KCIR 210255Z AUTO 21006KT 10SM SCT060 BKN070 OVC080 25/20 A2988 RMK AO2 T02500199
KCIR 210235Z AUTO 24007KT 10SM SCT060 BKN070 OVC090 25/20 A2988 RMK AO2 T02510198
KCIR 210215Z AUTO 24007KT 10SM SCT060 BKN070 OVC080 25/21 A2987 RMK AO2 LTG DSNT S T02510210
KCIR 210155Z AUTO 22008KT 10SM BKN065 OVC080 25/21 A2987 RMK AO2 T02530210
KCIR 210135Z AUTO 22008KT 10SM BKN065 OVC080 26/21 A2987 RMK AO2 T02560206
KCIR 210115Z AUTO 23008KT 10SM SCT065 SCT080 26/21 A2986 RMK AO2 T02600208
KCIR 210055Z AUTO 25010G19KT 10SM SCT033 27/21 A2987 RMK AO2 T02660211
KCIR 210035Z AUTO 24012G20KT 210V270 10SM CLR 28/21 A2985 RMK AO2 T02800211
KCIR 210015Z AUTO 21010G14KT 10SM CLR 28/21 A2985 RMK AO2 T02840205
KCIR 202355Z AUTO 21010KT 10SM CLR 29/20 A2984 RMK AO2 T02850201 10314 20285
KCIR 202335Z AUTO 19009G14KT 10SM SCT060 SCT070 29/20 A2983 RMK AO2 T02890201
KCIR 202315Z AUTO 20009KT 10SM SCT050 SCT060 SCT070 30/21 A2982 RMK AO2 T02990205
KCIR 202255Z AUTO 21009G14KT 10SM SCT050 30/20 A2982 RMK AO2 T03020201
KCIR 202235Z AUTO 22010G15KT 10SM SCT100 31/21 A2983 RMK AO2 T03070206
KCIR 202215Z AUTO 21010G15KT 10SM SCT100 31/21 A2983 RMK AO2 T03100212
KCIR 202155Z AUTO 21006KT 10SM CLR 31/21 A2983 RMK AO2 T03100211
KCIR 202135Z AUTO 21006KT 10SM CLR 31/21 A2984 RMK AO2 T03110212
KCIR 202115Z AUTO 21006KT 10SM CLR 31/21 A2984 RMK AO2 T03080210
KCIR 202055Z AUTO 19009KT 10SM SCT048 SCT060 31/22 A2985 RMK AO2 T03060221
KCIR 202035Z AUTO 20010KT 10SM BKN050 BKN060 31/21 A2986 RMK AO2 T03060208
KCIR 202015Z AUTO 21011KT 10SM SCT048 SCT060 31/21 A2987 RMK AO2 T03120209
KCIR 201955Z AUTO 20007G16KT 10SM SCT045 31/21 A2987 RMK AO2 T03090208
KCIR 201935Z AUTO 20010G14KT 160V220 10SM SCT035 SCT043 31/22 A2988 RMK AO2 T03100215
KCIR 201915Z AUTO 21008G16KT 10SM SCT034 SCT041 SCT048 31/22 A2989 RMK AO2 T03090215
KCIR 201855Z AUTO 22008KT 10SM SCT039 BKN046 BKN050 30/22 A2989 RMK AO2 T03000222
KCIR 201835Z AUTO 20009KT 10SM BKN037 BKN045 OVC050 30/22 A2990 RMK AO2 T03010223
KCIR 201815Z AUTO 20007KT 10SM BKN039 BKN049 30/22 A2990 RMK AO2 T02960222
KCIR 201755Z AUTO 17008KT 10SM SCT035 SCT042 SCT049 30/22 A2990 RMK AO2 T03020224 10306 20241
KCIR 201735Z AUTO 20006KT 10SM BKN033 BKN041 BKN047 29/22 A2991 RMK AO2 T02930222
KCIR 201715Z AUTO 21006KT 10SM SCT035 BKN043 BKN060 29/22 A2992 RMK AO2 T02880224
KCIR 201655Z AUTO 24006KT 10SM SCT033 BKN075 30/22 A2992 RMK AO2 T02980224
KCIR 201635Z AUTO 23006KT 10SM SCT033 OVC075 30/22 A2993 RMK AO2 T02950220
KCIR 201615Z AUTO 21007KT 10SM BKN075 30/22 A2993 RMK AO2 T02970219
KCIR 201555Z AUTO 20007KT 10SM CLR 29/22 A2993 RMK AO2 T02910221
KCIR 201535Z AUTO 20005KT 10SM CLR 29/22 A2993 RMK AO2 T02920223
KCIR 201515Z AUTO 24006KT 10SM CLR 28/22 A2993 RMK AO2 T02840216
KCIR 201455Z AUTO 21006KT 10SM CLR 28/22 A2993 RMK AO2 T02790217
KCIR 201435Z AUTO 22006KT 10SM CLR 28/22 A2993 RMK AO2 T02760216
KCIR 201415Z AUTO 21006KT 10SM CLR 27/22 A2994 RMK AO2 T02680216
KCIR 201355Z AUTO 24006KT 10SM CLR 27/22 A2994 RMK AO2 T02650215
KCIR 201335Z AUTO 24006KT 10SM CLR 26/21 A2994 RMK AO2 T02570210
KCIR 201315Z AUTO 22005KT 10SM CLR 25/21 A2994 RMK AO2 T02510207
KCIR 201255Z AUTO 22006KT 10SM CLR 25/21 A2994 RMK AO2 T02500206
KCIR 201235Z AUTO 22004KT 10SM CLR 25/21 A2994 RMK AO2 T02460206
KCIR 201215Z AUTO 23005KT 10SM CLR 25/20 A2994 RMK AO2 T02450203
KCIR 201155Z AUTO 22003KT 10SM CLR 24/20 A2994 RMK AO2 T02400202 10258 20226
KCIR 201135Z AUTO 21003KT 10SM CLR 24/20 A2994 RMK AO2 T02360201
KCIR 201115Z AUTO 18003KT 10SM CLR 23/20 A2994 RMK AO2 T02330199
KCIR 201055Z AUTO 20003KT 10SM CLR 23/20 A2994 RMK AO2 T02300200
KCIR 201035Z AUTO 20003KT 10SM CLR 23/20 A2994 RMK AO2 T02280200
KCIR 201020Z AUTO 20003KT 10SM CLR 23/20 A2994 RMK AO2 T02300200
KCIR 200955Z AUTO 19005KT 10SM CLR 23/20 A2993 RMK AO2 T02310200
KCIR 200935Z AUTO 20004KT 10SM CLR 23/20 A2993 RMK AO2 T02330198
KCIR 200915Z AUTO 23004KT 10SM CLR 24/20 A2993 RMK AO2 T02350198
KCIR 200855Z AUTO 21003KT 10SM SCT055 SCT095 24/20 A2993 RMK AO2 T02370198
KCIR 200835Z AUTO 20004KT 10SM SCT055 24/20 A2994 RMK AO2 T02400197
KCIR 200815Z AUTO 00000KT 10SM CLR 24/20 A2994 RMK AO2 T02420197
KCIR 200755Z AUTO 22004KT 10SM CLR 25/20 A2993 RMK AO2 T02450196
KCIR 200735Z AUTO 23004KT 10SM CLR 25/20 A2994 RMK AO2 T02480196
KCIR 200715Z AUTO 21006KT 10SM CLR 25/20 A2993 RMK AO2 T02500196
KCIR 200655Z AUTO 21006KT 10SM CLR 25/20 A2993 RMK AO2 T02540195
KCIR 200635Z AUTO 22006KT 10SM CLR 26/20 A2993 RMK AO2 T02560196
KCIR 200615Z AUTO 21005KT 10SM CLR 26/20 A2993 RMK AO2 T02570200
KCIR 200555Z AUTO 20007KT 10SM CLR 26/20 A2994 RMK AO2 T02550201 10306 20252 403210236
KCIR 200535Z AUTO 19007KT 10SM CLR 25/21 A2994 RMK AO2 T02530205
KCIR 200515Z AUTO 19007KT 10SM CLR 25/21 A2993 RMK AO2 T02520205
KCIR 200455Z AUTO 18007KT 10SM CLR 25/20 A2993 RMK AO2 T02530203
KCIR 200435Z AUTO 18006KT 10SM CLR 26/20 A2994 RMK AO2 T02570200
KCIR 200415Z AUTO 17006KT 10SM CLR 26/20 A2994 RMK AO2 T02560199
KCIR 200355Z AUTO 18004KT 10SM CLR 26/20 A2994 RMK AO2 T02600196
KCIR 200335Z AUTO 17004KT 10SM CLR 27/20 A2994 RMK AO2 T02660196
KCIR 200315Z AUTO 21005KT 10SM CLR 27/20 A2994 RMK AO2 T02710195
KCIR 200255Z AUTO 20004KT 10SM CLR 27/20 A2993 RMK AO2 T02730195
KCIR 200235Z AUTO 21005KT 10SM CLR 28/20 A2993 RMK AO2 T02760195
KCIR 200215Z AUTO 22006KT 10SM CLR 28/20 A2993 RMK AO2 T02800197
KCIR 200155Z AUTO 22005KT 10SM CLR 28/20 A2993 RMK AO2 T02800200
KCIR 200135Z AUTO 21004KT 10SM CLR 28/20 A2993 RMK AO2 T02830199
KCIR 200115Z AUTO 21006KT 10SM CLR 29/20 A2993 RMK AO2 T02870197
KCIR 200055Z AUTO 21005KT 10SM CLR 29/20 A2992 RMK AO2 T02920201
KCIR 200035Z AUTO 23006KT 10SM CLR 30/20 A2993 RMK AO2 T02980199
KCIR 200015Z AUTO 23009KT 10SM CLR 30/20 A2993 RMK AO2 T03040199
KCIR 192355Z AUTO 22006KT 10SM CLR 31/20 A2993 RMK AO2 T03070200 10321 20286